Airfield :
LOGIN :

Register | Disclaimer

   EN    FR    IT 

 










Legend :    VFR   Marginal VFR   IFR   Intensive IFR   Very Intensive IFR
Visi :
Ceiling :
>= 8 km
>= 3000ft
5 to 8 km
1000 to 3000 ft
1500m to 5 km
500 to 1000 ft
800 to 1500m
200 to 500 ft
< 800m
< 200 ft
Symbols :   Thunderstorms  Fog  Heavy snow  Heavy precipitations  Wind > 20 kt
SIGMETs :     Misc.  Thunderstorms  Icing  Turbulence  Mountain Waves  Volcanic Ashes






- Airport Elevation : 526 ft
- IATA code : LTN


EGGW - London Luton

CURRENT METAR :
  • 131520Z AUTO 27010KT 9999 FEW041 18/10 Q1013

EXPIRED METARs :
  • 131450Z AUTO 30011KT 9999 FEW032 SCT045 18/10 Q1013
  • 131420Z AUTO 27013KT 9999 SCT033 BKN039 BKN045 17/10 Q1013
  • 131350Z AUTO 27006KT 210V320 9999 SCT031 SCT040 18/10 Q1013
  • 131320Z AUTO 34006KT 280V010 9999 BKN031 OVC039 16/09 Q1013
  • 131250Z AUTO 27008KT 220V350 9999 FEW038 BKN044 19/09 Q1013
  • 131220Z AUTO 26010KT 9999 BKN041 16/10 Q1013
  • 131150Z AUTO 31009KT 270V330 9999 BKN033 OVC043 16/10 Q1014
  • 131120Z AUTO 30010KT 9999 SCT032 BKN043 18/09 Q1014
  • 131050Z AUTO 29011KT 9999 FEW026 OVC037 16/09 Q1014

TAF TAF EGGW
Valid from the 13 at 12:00 until the 14 at 12:00 UTC


131055Z 1312/1412 31007KT 9999 SCT025
PROB30
TEMPO 1314/1320 7000 SHRA
ATIS : +44 1582 395 204



MET'MAP, your aeronautical weather chart ! - Copyright ORBIFLY December 2007 - Disclaimer

ORBIFLY MET'MAP TEAM :

Programming & Development : Alexandra Zaïnal
Original concept : Baudouin d'Aumeries
Technical & hardware support : Manuel Goepfert
Assistance : Marc-Olivier Méhu




SOURCES & CREDITS :

   NOAA